Time;durP1;ratioP1;P1;durP2;ratioP2;P2;SDS_P1;SDS_P2;PMS_P1;PMS_P2;Temp;Humidity;BMP_temperature;BMP_pressure;BME280_temperature;BME280_humidity;BME280_pressure;Samples;Min_cycle;Max_cycle;Signal;HPM_P1;HPM_P2
2022/08/03 00:01:43;;;;;;;0.20;0.20;;;18.90;99.90;;;;;;4947607;28;20042;-83
2022/08/03 00:04:10;;;;;;;0.30;0.30;;;18.90;99.90;;;;;;4950447;28;20042;-82
2022/08/03 00:06:36;;;;;;;0.20;0.20;;;18.90;99.90;;;;;;4949562;28;20397;-83
2022/08/03 00:09:08;;;;;;;0.30;0.30;;;19.00;99.90;;;;;;4950492;28;20888;-83
2022/08/03 00:11:35;;;;;;;0.30;0.30;;;19.00;99.90;;;;;;4951847;28;20105;-83
2022/08/03 00:14:01;;;;;;;0.30;0.30;;;19.00;99.90;;;;;;4953518;28;20046;-83
2022/08/03 00:16:27;;;;;;;0.20;0.20;;;18.90;99.90;;;;;;4952088;28;20165;-83
2022/08/03 00:18:53;;;;;;;0.30;0.30;;;18.90;99.90;;;;;;4967349;28;20052;-83
2022/08/03 00:21:19;;;;;;;0.30;0.30;;;18.60;99.90;;;;;;4916617;28;20042;-83
2022/08/03 00:23:45;;;;;;;0.22;0.22;;;18.50;99.90;;;;;;4948815;28;20061;-83
2022/08/03 00:26:11;;;;;;;0.30;0.30;;;18.30;99.90;;;;;;4968256;28;20077;-83
2022/08/03 00:28:37;;;;;;;0.30;0.30;;;18.30;99.90;;;;;;4933416;28;20183;-82
2022/08/03 00:31:02;;;;;;;0.30;0.30;;;18.40;99.90;;;;;;4955374;28;20064;-82
2022/08/03 00:33:28;;;;;;;0.30;0.30;;;18.60;99.90;;;;;;4953807;28;20050;-82
2022/08/03 00:35:54;;;;;;;0.30;0.30;;;18.70;99.90;;;;;;4953862;28;20133;-82
2022/08/03 00:38:20;;;;;;;0.30;0.30;;;18.90;99.90;;;;;;4961529;28;20054;-82
2022/08/03 00:40:46;;;;;;;0.30;0.30;;;18.90;99.90;;;;;;4966744;28;20089;-83
2022/08/03 00:43:12;;;;;;;0.40;0.40;;;18.90;99.90;;;;;;4959386;28;20042;-82
2022/08/03 00:45:40;;;;;;;0.30;0.30;;;18.80;99.90;;;;;;4943271;28;20124;-82
2022/08/03 00:48:08;;;;;;;0.30;0.30;;;18.80;99.90;;;;;;4975809;28;20670;-82
2022/08/03 00:50:37;;;;;;;0.30;0.30;;;18.70;99.90;;;;;;4963639;28;20717;-82
2022/08/03 00:53:05;;;;;;;0.20;0.20;;;18.60;99.90;;;;;;4949598;28;20796;-82
2022/08/03 00:55:31;;;;;;;0.30;0.30;;;18.70;99.90;;;;;;4960290;28;20594;-82
2022/08/03 00:57:58;;;;;;;0.30;0.30;;;18.80;99.90;;;;;;4953493;28;20047;-82
2022/08/03 01:00:25;;;;;;;0.75;0.75;;;18.70;99.90;;;;;;4956101;28;20146;-83
2022/08/03 01:02:52;;;;;;;0.30;0.30;;;18.70;99.90;;;;;;4959347;28;20054;-82
2022/08/03 01:05:19;;;;;;;0.30;0.30;;;18.60;99.90;;;;;;4954360;28;20122;-83
2022/08/03 01:07:48;;;;;;;0.30;0.30;;;18.60;99.90;;;;;;4955463;28;20088;-82
2022/08/03 01:10:24;;;;;;;0.30;0.30;;;18.60;99.90;;;;;;4951209;28;20044;-82
2022/08/03 01:13:30;;;;;;;0.30;0.30;;;18.70;99.90;;;;;;4955613;28;20172;-82
2022/08/03 01:15:59;;;;;;;0.30;0.30;;;18.70;99.90;;;;;;4963920;28;20046;-82
2022/08/03 01:18:44;;;;;;;0.30;0.30;;;18.70;99.90;;;;;;4957129;28;20050;-83
2022/08/03 01:21:18;;;;;;;0.30;0.30;;;18.70;99.90;;;;;;4959626;28;20049;-82
2022/08/03 01:24:12;;;;;;;0.30;0.30;;;18.60;99.90;;;;;;4956326;28;20057;-82
2022/08/03 01:27:01;;;;;;;0.30;0.30;;;18.50;99.90;;;;;;4958984;28;20053;-82
2022/08/03 01:29:42;;;;;;;0.30;0.30;;;18.50;99.90;;;;;;4960509;28;20508;-82
2022/08/03 01:32:14;;;;;;;0.30;0.30;;;18.60;99.90;;;;;;4952866;28;20137;-82
2022/08/03 01:34:47;;;;;;;0.30;0.30;;;18.50;99.90;;;;;;4955166;28;20924;-82
2022/08/03 01:37:20;;;;;;;0.30;0.30;;;18.50;99.90;;;;;;4964744;28;20136;-81
2022/08/03 01:39:47;;;;;;;0.30;0.30;;;18.50;99.90;;;;;;4955151;28;20049;-82
2022/08/03 01:42:15;;;;;;;0.30;0.30;;;18.60;99.90;;;;;;4957590;28;20050;-81
2022/08/03 01:44:44;;;;;;;0.30;0.30;;;18.60;99.90;;;;;;4938732;28;20053;-82
2022/08/03 01:47:11;;;;;;;0.30;0.30;;;18.60;99.90;;;;;;4939675;28;20620;-82
2022/08/03 01:49:42;;;;;;;0.30;0.30;;;18.50;99.90;;;;;;4952710;28;20050;-82
2022/08/03 01:52:09;;;;;;;0.30;0.30;;;18.50;99.90;;;;;;4964696;28;20761;-82
2022/08/03 01:54:39;;;;;;;0.30;0.30;;;18.40;99.90;;;;;;4952710;28;20758;-82
2022/08/03 01:57:06;;;;;;;0.30;0.30;;;18.40;99.90;;;;;;4955457;28;21081;-82
2022/08/03 01:59:35;;;;;;;0.30;0.30;;;18.50;99.90;;;;;;4937318;28;20137;-82
2022/08/03 02:02:02;;;;;;;0.30;0.30;;;18.40;99.90;;;;;;4955991;28;20108;-82
2022/08/03 02:04:29;;;;;;;0.30;0.30;;;18.40;99.90;;;;;;4969229;28;20094;-83
2022/08/03 02:06:56;;;;;;;0.30;0.30;;;18.50;99.90;;;;;;4955045;28;20050;-83
2022/08/03 02:09:24;;;;;;;0.30;0.30;;;18.40;99.90;;;;;;4972910;28;20108;-82
2022/08/03 02:11:51;;;;;;;0.30;0.30;;;18.30;99.90;;;;;;4951921;28;20053;-82
2022/08/03 02:14:20;;;;;;;0.30;0.30;;;18.30;99.90;;;;;;4955342;28;20049;-83
2022/08/03 02:16:47;;;;;;;0.30;0.30;;;18.40;99.90;;;;;;4952774;28;20064;-81
2022/08/03 02:19:15;;;;;;;0.30;0.30;;;18.30;99.90;;;;;;4948811;28;20064;-82
2022/08/03 02:21:44;;;;;;;0.30;0.30;;;18.40;99.90;;;;;;4956468;28;20057;-82
2022/08/03 02:24:10;;;;;;;0.30;0.30;;;18.30;99.90;;;;;;4950032;28;20161;-82
2022/08/03 02:26:38;;;;;;;0.30;0.30;;;18.30;99.90;;;;;;4951630;28;20392;-82
2022/08/03 02:29:14;;;;;;;0.30;0.30;;;18.30;99.90;;;;;;4954105;28;20049;-82
2022/08/03 02:31:42;;;;;;;0.30;0.30;;;18.30;99.90;;;;;;4954648;28;20049;-81
2022/08/03 02:34:12;;;;;;;0.30;0.30;;;18.40;99.90;;;;;;4951729;28;20517;-81
2022/08/03 02:36:41;;;;;;;0.30;0.30;;;18.30;99.90;;;;;;4955284;28;20042;-83
2022/08/03 02:39:10;;;;;;;0.30;0.30;;;18.20;99.90;;;;;;4955564;28;20628;-81
2022/08/03 02:41:40;;;;;;;0.30;0.30;;;18.20;99.90;;;;;;4955683;28;20515;-81
2022/08/03 02:44:08;;;;;;;0.22;0.22;;;18.20;99.90;;;;;;4956211;28;20096;-81
2022/08/03 02:46:37;;;;;;;0.30;0.30;;;18.30;99.90;;;;;;4939498;28;20133;-81
2022/08/03 02:49:04;;;;;;;0.30;0.30;;;18.20;99.90;;;;;;4955675;28;20079;-81
2022/08/03 02:51:32;;;;;;;0.30;0.30;;;18.10;99.90;;;;;;4950043;28;20544;-81
2022/08/03 02:54:01;;;;;;;0.30;0.30;;;18.10;99.90;;;;;;4952563;28;20123;-81
2022/08/03 02:56:28;;;;;;;0.30;0.30;;;18.10;99.90;;;;;;4956010;28;20545;-82
2022/08/03 02:58:56;;;;;;;0.30;0.30;;;18.10;99.90;;;;;;4951501;28;20050;-81
2022/08/03 03:01:23;;;;;;;0.30;0.30;;;18.00;99.90;;;;;;4966138;28;20108;-81
2022/08/03 03:03:50;;;;;;;0.30;0.30;;;17.90;99.90;;;;;;4956022;28;20928;-81
2022/08/03 03:06:18;;;;;;;0.47;0.47;;;18.00;99.90;;;;;;4952946;28;20604;-81
2022/08/03 03:08:45;;;;;;;0.30;0.30;;;18.00;99.90;;;;;;4953206;28;20440;-80
2022/08/03 03:11:13;;;;;;;0.30;0.30;;;18.10;99.90;;;;;;4952969;28;20098;-80
2022/08/03 03:13:43;;;;;;;0.30;0.30;;;18.10;99.90;;;;;;4958577;28;20529;-81
2022/08/03 03:16:11;;;;;;;0.30;0.30;;;18.10;99.90;;;;;;4958911;28;20104;-80
2022/08/03 03:18:38;;;;;;;0.30;0.30;;;18.10;99.90;;;;;;4958266;28;20148;-81
2022/08/03 03:21:06;;;;;;;0.30;0.30;;;18.10;99.90;;;;;;4955865;28;20217;-82
2022/08/03 03:23:36;;;;;;;0.30;0.30;;;18.00;99.90;;;;;;4951269;28;20046;-82
2022/08/03 03:26:02;;;;;;;0.30;0.30;;;18.00;99.90;;;;;;4959915;28;20053;-81
2022/08/03 03:28:29;;;;;;;0.30;0.30;;;18.00;99.90;;;;;;4952230;28;20056;-80
2022/08/03 03:30:55;;;;;;;0.30;0.30;;;18.00;99.90;;;;;;4959823;28;21185;-81
2022/08/03 03:33:21;;;;;;;0.30;0.30;;;18.00;99.90;;;;;;4967153;28;20046;-81
2022/08/03 03:35:48;;;;;;;0.30;0.30;;;17.90;99.90;;;;;;4955298;28;20084;-82
2022/08/03 03:38:14;;;;;;;0.30;0.30;;;17.90;99.90;;;;;;4954875;28;20061;-81
2022/08/03 03:40:40;;;;;;;0.30;0.30;;;17.90;99.90;;;;;;4957869;28;20066;-82
2022/08/03 03:43:07;;;;;;;0.30;0.30;;;17.90;99.90;;;;;;4951326;28;20077;-82
2022/08/03 03:45:34;;;;;;;0.30;0.30;;;17.90;99.90;;;;;;4954093;28;20050;-82
2022/08/03 03:48:04;;;;;;;0.30;0.30;;;17.90;99.90;;;;;;4952377;28;20046;-81
2022/08/03 03:50:34;;;;;;;0.30;0.30;;;17.80;99.90;;;;;;4958534;28;20054;-82
2022/08/03 03:53:01;;;;;;;0.30;0.30;;;17.80;99.90;;;;;;4958633;28;20054;-81
2022/08/03 03:55:27;;;;;;;0.30;0.30;;;17.80;99.90;;;;;;4960919;28;20050;-82
2022/08/03 03:57:53;;;;;;;0.30;0.30;;;17.80;99.90;;;;;;4956786;28;20117;-83
2022/08/03 04:00:19;;;;;;;0.30;0.30;;;17.80;99.90;;;;;;4961824;28;20834;-83
2022/08/03 04:02:46;;;;;;;0.30;0.30;;;17.80;99.90;;;;;;4970666;28;20050;-83
2022/08/03 04:11:30;;;;;;;0.30;0.30;;;17.80;99.90;;;;;;4970307;28;20064;-83
2022/08/03 04:14:02;;;;;;;0.30;0.30;;;17.80;99.90;;;;;;4969179;28;20051;-81
2022/08/03 04:16:31;;;;;;;0.30;0.30;;;17.90;99.90;;;;;;4968492;28;20046;-82
2022/08/03 04:19:20;;;;;;;0.30;0.30;;;17.80;99.90;;;;;;4952901;28;20101;-83
2022/08/03 04:21:49;;;;;;;0.30;0.30;;;17.90;99.90;;;;;;4987093;28;20575;-82
2022/08/03 04:24:15;;;;;;;0.30;0.30;;;17.80;99.90;;;;;;4971386;28;20137;-82
2022/08/03 04:26:43;;;;;;;0.30;0.30;;;17.90;99.90;;;;;;4971888;28;20076;-83
2022/08/03 04:29:12;;;;;;;0.40;0.40;;;17.90;99.90;;;;;;4967377;28;20806;-82
2022/08/03 04:31:39;;;;;;;0.30;0.30;;;18.00;99.90;;;;;;4970238;28;20053;-81
2022/08/03 04:34:06;;;;;;;0.30;0.30;;;18.00;99.90;;;;;;4982012;28;20062;-82
2022/08/03 04:36:36;;;;;;;0.30;0.30;;;18.10;99.90;;;;;;4951357;28;20058;-82
2022/08/03 04:39:08;;;;;;;0.30;0.30;;;18.00;99.90;;;;;;4969538;28;20587;-81
2022/08/03 04:41:35;;;;;;;0.30;0.30;;;18.10;99.90;;;;;;4968794;28;20137;-82
2022/08/03 04:44:03;;;;;;;0.30;0.30;;;18.10;99.90;;;;;;4969471;28;20513;-83
2022/08/03 04:46:34;;;;;;;0.30;0.30;;;18.10;99.90;;;;;;4980224;28;20176;-82
2022/08/03 04:49:00;;;;;;;0.30;0.30;;;18.20;99.90;;;;;;4964085;28;20568;-82
2022/08/03 04:51:27;;;;;;;0.30;0.30;;;18.20;99.90;;;;;;4970215;28;20141;-82
2022/08/03 04:53:53;;;;;;;0.30;0.30;;;18.40;99.90;;;;;;4984011;28;20046;-82
2022/08/03 04:56:19;;;;;;;0.30;0.30;;;18.40;99.90;;;;;;4971807;28;20050;-83
2022/08/03 04:58:45;;;;;;;0.30;0.30;;;18.50;99.90;;;;;;4954222;28;20070;-81
2022/08/03 05:01:11;;;;;;;0.30;0.30;;;18.60;99.90;;;;;;4956123;28;20112;-81
2022/08/03 05:03:36;;;;;;;0.30;0.30;;;18.90;99.90;;;;;;4967814;28;20161;-82
2022/08/03 05:06:02;;;;;;;0.30;0.30;;;19.60;99.90;;;;;;4974113;28;20080;-82
2022/08/03 05:08:28;;;;;;;0.30;0.30;;;19.20;99.90;;;;;;4952955;28;20042;-82
2022/08/03 05:10:55;;;;;;;0.30;0.30;;;19.30;99.90;;;;;;4966791;28;20050;-81
2022/08/03 05:13:21;;;;;;;0.30;0.30;;;21.00;99.90;;;;;;4971531;28;20053;-82
2022/08/03 05:15:48;;;;;;;0.30;0.30;;;22.10;99.90;;;;;;4970153;28;20046;-82
2022/08/03 05:18:13;;;;;;;0.30;0.30;;;23.20;99.90;;;;;;4965835;28;20086;-82
2022/08/03 05:20:39;;;;;;;0.28;0.28;;;23.80;99.90;;;;;;4968209;28;20042;-83
2022/08/03 05:23:05;;;;;;;0.30;0.30;;;24.50;99.90;;;;;;4981385;28;20052;-82
2022/08/03 05:25:31;;;;;;;0.20;0.20;;;25.10;99.90;;;;;;4971202;28;20046;-82
2022/08/03 05:27:56;;;;;;;0.20;0.20;;;25.50;99.90;;;;;;4970153;28;20495;-82
2022/08/03 05:30:22;;;;;;;0.30;0.30;;;25.90;99.90;;;;;;4968410;28;21088;-83
2022/08/03 05:32:48;;;;;;;0.57;0.30;;;26.30;99.90;;;;;;4972740;28;20058;-84
2022/08/03 05:35:14;;;;;;;0.20;0.20;;;26.30;99.90;;;;;;4963572;28;20472;-82
2022/08/03 05:37:39;;;;;;;0.30;0.30;;;26.70;99.90;;;;;;4968239;28;20061;-83
2022/08/03 05:40:06;;;;;;;0.30;0.30;;;26.40;99.90;;;;;;4966245;28;20840;-82
2022/08/03 05:42:31;;;;;;;0.30;0.30;;;26.60;99.90;;;;;;4979148;28;20997;-83
2022/08/03 05:44:57;;;;;;;0.25;0.25;;;27.10;99.90;;;;;;4953144;28;20061;-83
2022/08/03 05:47:23;;;;;;;0.30;0.30;;;27.50;99.90;;;;;;4968522;28;20137;-83
2022/08/03 05:49:49;;;;;;;0.30;0.30;;;27.50;99.90;;;;;;4968405;28;20508;-83
2022/08/03 05:52:14;;;;;;;0.25;0.25;;;26.80;99.90;;;;;;4967986;28;20140;-82
2022/08/03 05:54:40;;;;;;;0.30;0.30;;;25.70;99.90;;;;;;4969144;28;20133;-80
2022/08/03 05:57:06;;;;;;;0.30;0.30;;;24.50;99.90;;;;;;4977331;28;20068;-83
2022/08/03 05:59:32;;;;;;;0.25;0.25;;;23.90;99.90;;;;;;4980451;28;20374;-81
2022/08/03 06:01:57;;;;;;;0.30;0.30;;;23.60;99.90;;;;;;4968447;28;20050;-79
2022/08/03 06:04:23;;;;;;;0.30;0.30;;;23.30;99.90;;;;;;4967263;28;20468;-81
2022/08/03 06:06:49;;;;;;;0.30;0.30;;;22.70;99.90;;;;;;4965329;28;20081;-80
2022/08/03 06:09:16;;;;;;;0.30;0.30;;;22.80;99.90;;;;;;4967746;28;20042;-80
2022/08/03 06:11:42;;;;;;;0.30;0.30;;;23.00;99.90;;;;;;4967608;28;20050;-80
2022/08/03 06:14:07;;;;;;;0.30;0.30;;;22.90;99.90;;;;;;4969342;28;20085;-81
2022/08/03 06:16:34;;;;;;;0.30;0.30;;;23.00;99.90;;;;;;4964480;28;21075;-79
2022/08/03 06:19:00;;;;;;;0.30;0.30;;;22.90;99.90;;;;;;4979512;28;20053;-79
2022/08/03 06:21:26;;;;;;;0.30;0.30;;;22.70;99.90;;;;;;4969013;28;20558;-80
2022/08/03 06:23:52;;;;;;;0.30;0.30;;;22.40;99.90;;;;;;4967990;28;20049;-79
2022/08/03 06:26:19;;;;;;;0.30;0.30;;;22.30;99.90;;;;;;4967563;28;20058;-81
2022/08/03 06:28:45;;;;;;;0.30;0.30;;;22.30;99.90;;;;;;4966030;28;20090;-81
2022/08/03 06:31:11;;;;;;;0.30;0.30;;;22.40;99.90;;;;;;4937447;28;20141;-80
2022/08/03 06:33:36;;;;;;;0.30;0.30;;;22.80;99.90;;;;;;4969498;28;20849;-81
2022/08/03 06:36:02;;;;;;;0.20;0.20;;;22.90;99.90;;;;;;4969020;28;20042;-81
2022/08/03 06:38:28;;;;;;;0.30;0.30;;;23.10;99.90;;;;;;4968188;28;20045;-79
2022/08/03 06:40:54;;;;;;;0.20;0.20;;;23.30;99.90;;;;;;4952353;28;21187;-80
2022/08/03 06:43:20;;;;;;;0.30;0.30;;;23.50;99.90;;;;;;4965548;28;20112;-79
2022/08/03 06:45:45;;;;;;;0.20;0.20;;;23.50;99.90;;;;;;4967404;28;20064;-81
2022/08/03 06:48:12;;;;;;;0.30;0.30;;;23.20;99.90;;;;;;4952693;28;20501;-81
2022/08/03 06:50:40;;;;;;;0.30;0.30;;;23.50;99.90;;;;;;4967847;28;20448;-81
2022/08/03 06:53:07;;;;;;;0.20;0.20;;;23.90;99.90;;;;;;4966898;28;20485;-79
2022/08/03 06:55:33;;;;;;;0.30;0.30;;;24.20;99.90;;;;;;4964711;28;20050;-81
2022/08/03 06:57:59;;;;;;;0.30;0.30;;;24.10;99.90;;;;;;4968283;28;20901;-81
2022/08/03 07:00:26;;;;;;;0.30;0.30;;;23.80;99.90;;;;;;4967367;28;20208;-84
2022/08/03 07:02:52;;;;;;;0.30;0.30;;;23.80;99.90;;;;;;4971278;28;21136;-80
2022/08/03 07:05:19;;;;;;;0.20;0.20;;;24.20;99.90;;;;;;4965542;28;20046;-79
2022/08/03 07:07:45;;;;;;;0.30;0.30;;;24.30;99.90;;;;;;4956837;28;20576;-81
2022/08/03 07:10:11;;;;;;;0.20;0.20;;;24.30;99.90;;;;;;4958169;28;20038;-84
2022/08/03 07:12:38;;;;;;;0.28;0.28;;;24.30;99.90;;;;;;4956197;28;20061;-84
2022/08/03 07:15:07;;;;;;;0.20;0.20;;;24.60;99.90;;;;;;4964818;28;20649;-82
2022/08/03 07:17:35;;;;;;;0.20;0.20;;;24.70;99.90;;;;;;4973675;28;20162;-83
2022/08/03 07:20:03;;;;;;;0.30;0.30;;;24.80;99.90;;;;;;4965422;28;20239;-82
2022/08/03 07:22:29;;;;;;;0.30;0.30;;;25.00;99.90;;;;;;4968836;28;20042;-81
2022/08/03 07:24:55;;;;;;;0.30;0.30;;;24.90;99.90;;;;;;4966955;28;20137;-82
2022/08/03 07:27:21;;;;;;;0.30;0.30;;;24.70;99.90;;;;;;4968315;28;20076;-86
2022/08/03 07:29:47;;;;;;;0.30;0.30;;;24.80;99.90;;;;;;4967490;28;20555;-81
2022/08/03 07:32:12;;;;;;;0.57;0.57;;;24.60;99.90;;;;;;4966290;28;20072;-81
2022/08/03 07:34:38;;;;;;;0.30;0.30;;;24.70;99.90;;;;;;4971307;28;20042;-80
2022/08/03 07:37:04;;;;;;;0.30;0.30;;;24.90;99.90;;;;;;4952640;28;21552;-81
2022/08/03 07:39:30;;;;;;;0.25;0.25;;;24.90;99.90;;;;;;4973221;28;20496;-83
2022/08/03 07:41:56;;;;;;;0.20;0.20;;;25.00;99.90;;;;;;4972302;28;20169;-80
2022/08/03 07:44:21;;;;;;;0.20;0.20;;;25.00;99.90;;;;;;4972191;28;20130;-84
2022/08/03 07:46:47;;;;;;;0.28;0.28;;;24.90;99.90;;;;;;4982099;28;20045;-82
2022/08/03 07:49:13;;;;;;;0.30;0.30;;;24.90;99.90;;;;;;4972225;28;20601;-82
2022/08/03 07:51:39;;;;;;;0.30;0.30;;;25.10;99.90;;;;;;4969124;28;20086;-80
2022/08/03 07:54:05;;;;;;;0.30;0.30;;;25.20;99.90;;;;;;4973135;28;20054;-80
2022/08/03 07:56:31;;;;;;;0.28;0.28;;;25.20;99.90;;;;;;4971472;28;20056;-81
2022/08/03 07:58:56;;;;;;;0.28;0.28;;;25.30;99.90;;;;;;4967642;28;20132;-80
2022/08/03 08:01:24;;;;;;;0.35;0.35;;;25.30;99.90;;;;;;4966390;28;20057;-81
2022/08/03 08:03:50;;;;;;;0.20;0.20;;;25.30;99.90;;;;;;4965055;28;20050;-82
2022/08/03 08:06:16;;;;;;;0.30;0.30;;;25.50;99.90;;;;;;4963203;28;20054;-81
2022/08/03 08:08:42;;;;;;;0.30;0.30;;;25.60;99.90;;;;;;4961968;28;20624;-80
2022/08/03 08:11:08;;;;;;;0.20;0.20;;;25.80;99.90;;;;;;4947623;28;20056;-81
2022/08/03 08:13:34;;;;;;;0.30;0.30;;;25.90;99.90;;;;;;4965621;28;20081;-83
2022/08/03 08:16:00;;;;;;;0.20;0.20;;;25.70;99.90;;;;;;4967988;28;20058;-81
2022/08/03 08:18:28;;;;;;;0.20;0.20;;;25.70;99.90;;;;;;4971593;28;20046;-82
2022/08/03 08:20:54;;;;;;;0.30;0.30;;;25.50;99.90;;;;;;4964686;28;20596;-80
2022/08/03 08:23:23;;;;;;;0.20;0.20;;;25.70;99.90;;;;;;4959317;28;20042;-80
2022/08/03 08:25:50;;;;;;;0.30;0.30;;;25.90;99.90;;;;;;4968967;28;20058;-80
2022/08/03 08:28:20;;;;;;;0.28;0.28;;;26.20;99.90;;;;;;4969553;28;20065;-79
2022/08/03 08:30:46;;;;;;;0.20;0.20;;;26.50;99.90;;;;;;4969415;28;20100;-79
2022/08/03 08:33:12;;;;;;;0.22;0.22;;;26.80;99.90;;;;;;4969942;28;20042;-80
2022/08/03 08:35:38;;;;;;;0.20;0.20;;;26.70;99.90;;;;;;4966722;28;20045;-78
2022/08/03 08:38:04;;;;;;;0.20;0.20;;;26.80;99.90;;;;;;4967291;28;20103;-81
2022/08/03 08:40:30;;;;;;;0.20;0.20;;;26.70;99.90;;;;;;4969380;28;20485;-82
2022/08/03 08:42:56;;;;;;;0.20;0.20;;;26.90;99.90;;;;;;4968581;28;21385;-80
2022/08/03 08:45:22;;;;;;;0.20;0.20;;;27.20;99.90;;;;;;4965751;28;20118;-81
2022/08/03 08:47:49;;;;;;;0.20;0.20;;;27.30;99.90;;;;;;4968458;28;20056;-80
2022/08/03 08:50:20;;;;;;;0.30;0.30;;;27.20;99.90;;;;;;4964241;28;20520;-82
2022/08/03 08:52:49;;;;;;;0.28;0.28;;;27.30;99.90;;;;;;4969159;28;20057;-81
2022/08/03 08:55:22;;;;;;;0.20;0.20;;;27.40;99.90;;;;;;4983981;28;20120;-80
2022/08/03 08:58:00;;;;;;;0.30;0.30;;;27.50;99.90;;;;;;4962269;28;20536;-80
2022/08/03 09:00:26;;;;;;;0.30;0.30;;;27.50;99.90;;;;;;4964403;28;20054;-80
2022/08/03 09:02:52;;;;;;;0.20;0.20;;;27.50;99.90;;;;;;4959167;28;20704;-82
2022/08/03 09:05:19;;;;;;;0.20;0.20;;;27.70;99.90;;;;;;4963622;28;20053;-81
2022/08/03 09:07:47;;;;;;;0.20;0.20;;;27.70;99.90;;;;;;4964860;28;20077;-79
2022/08/03 09:10:16;;;;;;;0.30;0.30;;;28.00;99.90;;;;;;4971831;28;20050;-80
2022/08/03 09:12:44;;;;;;;0.20;0.20;;;28.10;99.90;;;;;;4972588;28;20108;-81
2022/08/03 09:15:53;;;;;;;0.20;0.20;;;28.10;99.90;;;;;;4970742;28;20232;-80
2022/08/03 09:18:29;;;;;;;0.20;0.20;;;28.20;99.90;;;;;;4971235;28;20050;-81
2022/08/03 09:21:24;;;;;;;0.20;0.20;;;28.20;99.90;;;;;;4969211;28;20127;-82
2022/08/03 09:23:55;;;;;;;0.30;0.30;;;28.10;99.90;;;;;;4976715;28;20452;-82
2022/08/03 09:26:29;;;;;;;0.20;0.20;;;28.20;99.90;;;;;;4971794;28;20057;-80
2022/08/03 09:29:09;;;;;;;0.60;0.38;;;28.10;99.90;;;;;;4971130;28;20077;-81
2022/08/03 09:31:41;;;;;;;0.20;0.20;;;28.10;99.90;;;;;;4983252;28;20053;-79
2022/08/03 09:34:15;;;;;;;0.20;0.20;;;28.40;99.90;;;;;;4973105;28;20084;-82
2022/08/03 09:36:45;;;;;;;0.20;0.20;;;28.50;99.90;;;;;;4975413;28;20766;-82
2022/08/03 09:39:16;;;;;;;0.20;0.20;;;28.60;99.90;;;;;;4987764;28;20046;-83
2022/08/03 09:41:45;;;;;;;0.25;0.25;;;28.80;99.90;;;;;;4967406;28;20057;-87
2022/08/03 09:44:11;;;;;;;0.30;0.30;;;28.80;99.90;;;;;;4969730;28;20069;-82
2022/08/03 09:46:51;;;;;;;0.20;0.20;;;28.90;99.90;;;;;;4970218;28;21176;-82
2022/08/03 09:49:17;;;;;;;0.30;0.30;;;29.10;99.90;;;;;;4971619;28;20054;-83
2022/08/03 09:51:43;;;;;;;0.20;0.20;;;29.10;99.90;;;;;;4973717;28;20054;-80
2022/08/03 09:54:10;;;;;;;0.20;0.20;;;29.40;99.90;;;;;;4952665;28;20584;-87
2022/08/03 09:56:43;;;;;;;0.20;0.20;;;29.40;99.90;;;;;;4969330;28;20046;-79
2022/08/03 09:59:21;;;;;;;0.20;0.20;;;29.50;99.90;;;;;;4974897;28;20509;-80
2022/08/03 10:01:47;;;;;;;0.30;0.30;;;29.70;99.90;;;;;;4963580;28;20050;-80
2022/08/03 10:04:15;;;;;;;0.20;0.20;;;29.50;99.90;;;;;;4966456;28;20042;-80
2022/08/03 10:07:01;;;;;;;0.20;0.20;;;29.70;99.90;;;;;;4972023;28;20042;-82
2022/08/03 10:09:27;;;;;;;0.20;0.20;;;29.80;99.90;;;;;;4970437;28;20050;-85
2022/08/03 10:11:53;;;;;;;0.20;0.20;;;29.90;99.90;;;;;;4955036;28;20088;-84
2022/08/03 10:14:19;;;;;;;0.20;0.20;;;29.70;99.90;;;;;;4953049;28;20050;-82
2022/08/03 10:16:46;;;;;;;0.20;0.20;;;29.80;99.90;;;;;;4976086;28;20095;-82
2022/08/03 10:19:13;;;;;;;0.20;0.20;;;29.90;99.90;;;;;;4968835;28;20050;-83
2022/08/03 10:21:45;;;;;;;0.20;0.20;;;30.20;99.90;;;;;;4970802;28;20139;-79
2022/08/03 10:24:14;;;;;;;0.20;0.20;;;30.60;99.90;;;;;;4974887;28;20064;-83
2022/08/03 10:26:43;;;;;;;0.20;0.20;;;30.60;99.90;;;;;;4973131;28;20493;-82
2022/08/03 10:29:13;;;;;;;0.20;0.20;;;30.60;99.90;;;;;;4972556;28;20053;-81
2022/08/03 10:31:43;;;;;;;0.20;0.20;;;30.50;99.90;;;;;;4977187;28;20404;-81
2022/08/03 10:34:21;;;;;;;0.20;0.20;;;30.70;99.90;;;;;;4972118;28;20096;-80
2022/08/03 10:36:48;;;;;;;0.20;0.20;;;30.70;99.90;;;;;;4970182;28;20054;-81
2022/08/03 10:39:20;;;;;;;0.20;0.20;;;30.80;99.90;;;;;;4951588;28;20093;-81
2022/08/03 10:41:47;;;;;;;0.20;0.20;;;30.90;99.90;;;;;;4973303;28;20836;-83
2022/08/03 10:44:18;;;;;;;0.20;0.20;;;30.80;99.90;;;;;;4954075;28;20046;-85
2022/08/03 10:46:45;;;;;;;0.20;0.20;;;30.70;99.90;;;;;;4974228;28;20050;-82
2022/08/03 10:49:13;;;;;;;0.20;0.20;;;30.70;99.90;;;;;;4982294;28;20046;-80
2022/08/03 10:51:41;;;;;;;0.20;0.20;;;31.00;99.90;;;;;;4974835;28;20123;-80
2022/08/03 10:54:09;;;;;;;0.20;0.20;;;30.90;99.90;;;;;;4964303;28;20067;-81
2022/08/03 10:59:45;;;;;;;0.20;0.20;;;31.10;99.90;;;;;;4962109;28;20547;-80
2022/08/03 11:02:14;;;;;;;0.20;0.20;;;31.00;99.90;;;;;;4961696;28;20049;-82
2022/08/03 11:04:41;;;;;;;0.20;0.20;;;31.10;99.90;;;;;;4963198;28;20620;-85
2022/08/03 11:07:16;;;;;;;0.25;0.25;;;31.30;99.90;;;;;;4956117;28;20085;-83
2022/08/03 11:09:47;;;;;;;0.20;0.20;;;31.20;99.90;;;;;;4944057;28;20133;-81
2022/08/03 11:12:23;;;;;;;0.20;0.20;;;31.40;99.90;;;;;;4944926;28;20101;-82
2022/08/03 11:14:50;;;;;;;0.20;0.20;;;31.40;99.90;;;;;;4956703;28;20338;-82
2022/08/03 11:17:17;;;;;;;0.20;0.20;;;31.50;99.90;;;;;;4969628;28;20057;-83
2022/08/03 11:19:45;;;;;;;0.20;0.20;;;31.70;99.90;;;;;;4962518;28;20046;-81
2022/08/03 11:22:12;;;;;;;0.20;0.20;;;31.70;99.90;;;;;;4969487;28;20081;-83
2022/08/03 11:24:50;;;;;;;0.20;0.20;;;31.80;99.90;;;;;;4974510;28;20053;-83
2022/08/03 11:27:23;;;;;;;0.20;0.20;;;31.80;99.90;;;;;;4965920;28;20046;-82
2022/08/03 11:29:56;;;;;;;0.20;0.20;;;31.70;99.90;;;;;;4962305;28;20053;-86
2022/08/03 11:32:42;;;;;;;0.20;0.20;;;31.90;99.90;;;;;;4944484;28;20049;-83
2022/08/03 11:35:42;;;;;;;0.20;0.20;;;32.20;99.90;;;;;;4966239;28;20247;-82
2022/08/03 11:38:10;;;;;;;0.20;0.20;;;32.30;99.90;;;;;;4967037;28;20058;-82
2022/08/03 11:40:43;;;;;;;0.20;0.20;;;32.30;99.60;;;;;;4954922;28;20059;-83
2022/08/03 11:43:29;;;;;;;0.20;0.20;;;32.20;99.40;;;;;;4962081;28;20128;-84
2022/08/03 11:46:07;;;;;;;0.20;0.20;;;32.10;98.80;;;;;;4957985;28;20062;-82
2022/08/03 11:48:34;;;;;;;0.20;0.20;;;32.50;99.90;;;;;;4972815;28;20046;-84
2022/08/03 11:51:01;;;;;;;0.20;0.20;;;32.50;99.50;;;;;;4984636;28;20674;-82
2022/08/03 11:53:27;;;;;;;0.20;0.20;;;32.50;99.90;;;;;;4965422;28;20045;-82
2022/08/03 11:55:57;;;;;;;0.25;0.25;;;32.50;99.40;;;;;;4969387;28;20053;-83
2022/08/03 11:58:23;;;;;;;0.20;0.20;;;32.70;99.80;;;;;;4981085;28;20141;-84
2022/08/03 12:00:49;;;;;;;0.20;0.20;;;32.60;98.80;;;;;;4965716;28;20042;-81
2022/08/03 12:03:17;;;;;;;0.20;0.20;;;32.60;98.70;;;;;;4967333;28;20046;-81
2022/08/03 12:05:48;;;;;;;0.20;0.20;;;32.50;98.00;;;;;;4970105;28;20046;-80
2022/08/03 12:08:16;;;;;;;0.20;0.20;;;32.70;98.30;;;;;;4964466;28;20054;-81
2022/08/03 12:10:48;;;;;;;0.30;0.30;;;32.60;98.10;;;;;;4954951;28;20120;-82
2022/08/03 12:13:14;;;;;;;0.20;0.20;;;32.40;97.30;;;;;;4976773;28;20046;-80
2022/08/03 12:15:41;;;;;;;0.20;0.20;;;32.30;97.40;;;;;;4975675;28;20053;-82
2022/08/03 12:18:15;;;;;;;0.20;0.20;;;32.50;97.60;;;;;;4945306;28;20042;-82
2022/08/03 12:20:42;;;;;;;0.20;0.20;;;32.50;96.40;;;;;;4959796;28;20104;-83
2022/08/03 12:23:08;;;;;;;0.20;0.20;;;32.70;97.40;;;;;;4958590;28;20919;-82
2022/08/03 12:25:36;;;;;;;0.20;0.20;;;32.70;96.50;;;;;;4950361;28;20161;-82
2022/08/03 12:28:21;;;;;;;0.10;0.10;;;32.90;96.50;;;;;;4959460;28;20125;-82
2022/08/03 12:30:49;;;;;;;0.20;0.20;;;33.00;96.50;;;;;;4967338;28;20065;-80
2022/08/03 12:33:24;;;;;;;0.20;0.20;;;32.90;96.20;;;;;;4955875;28;20046;-83
2022/08/03 12:36:01;;;;;;;0.20;0.20;;;33.30;96.90;;;;;;4951895;28;20089;-82
2022/08/03 12:38:27;;;;;;;0.20;0.20;;;33.20;94.80;;;;;;4961387;28;20065;-80
2022/08/03 12:41:07;;;;;;;0.20;0.20;;;33.20;95.30;;;;;;4947727;28;21117;-82
2022/08/03 12:43:34;;;;;;;0.20;0.20;;;33.20;95.30;;;;;;4962824;28;20054;-81
2022/08/03 12:46:10;;;;;;;0.20;0.20;;;33.40;96.00;;;;;;4958494;28;20588;-83
2022/08/03 12:48:53;;;;;;;0.20;0.20;;;33.60;95.20;;;;;;4954749;28;20153;-81
2022/08/03 12:51:19;;;;;;;0.20;0.20;;;33.20;94.30;;;;;;4961575;28;20061;-82
2022/08/03 12:53:55;;;;;;;0.20;0.20;;;33.40;95.50;;;;;;4971045;28;20062;-82
2022/08/03 12:56:21;;;;;;;0.20;0.20;;;33.30;94.70;;;;;;4963150;28;20085;-82
2022/08/03 12:58:47;;;;;;;0.20;0.20;;;33.30;93.70;;;;;;4963381;28;20081;-83
2022/08/03 13:01:13;;;;;;;0.20;0.20;;;33.40;93.60;;;;;;4960560;28;20511;-83
2022/08/03 13:03:40;;;;;;;0.20;0.20;;;33.40;94.10;;;;;;4959568;28;20061;-86
2022/08/03 13:06:14;;;;;;;0.20;0.20;;;33.20;93.70;;;;;;4953071;28;20082;-82